createdAt,value
2022-11-26T00:01:31.121Z,47.5
2022-11-26T00:03:33.048Z,47.5
2022-11-26T00:05:34.933Z,48.7
2022-11-26T00:07:40.155Z,41.1
2022-11-26T00:09:42.026Z,56.4
2022-11-26T00:11:44.295Z,45.4
2022-11-26T00:12:46.537Z,34.3
2022-11-26T00:14:48.483Z,40
2022-11-26T00:16:50.547Z,54
2022-11-26T00:18:52.395Z,44.5
2022-11-26T00:20:57.572Z,58.3
2022-11-26T00:22:59.514Z,40.3
2022-11-26T00:25:01.425Z,57.8
2022-11-26T00:27:03.405Z,59.9
2022-11-26T00:29:05.308Z,53.7
2022-11-26T00:31:07.282Z,60.4
2022-11-26T00:33:09.236Z,54
2022-11-26T00:35:14.376Z,68.4
2022-11-26T00:37:16.311Z,31.5
2022-11-26T00:39:18.257Z,47.9
2022-11-26T00:43:22.172Z,45.1
2022-11-26T00:45:24.207Z,49.8
2022-11-26T00:47:26.186Z,31
2022-11-26T00:49:31.261Z,46.4
2022-11-26T00:51:33.208Z,39.3
2022-11-26T00:53:35.159Z,50.5
2022-11-26T00:55:37.079Z,65.1
2022-11-26T00:57:39.028Z,48.5
2022-11-26T00:59:40.956Z,79.5
2022-11-26T01:01:42.897Z,49.4
2022-11-26T01:03:48.072Z,38.2
2022-11-26T01:05:50.015Z,42
2022-11-26T01:10:56.459Z,47
2022-11-26T01:12:58.411Z,42.6
2022-11-26T01:15:00.371Z,56.2
2022-11-26T01:17:05.546Z,51.3
2022-11-26T01:19:07.469Z,44.7
2022-11-26T01:21:09.406Z,52.7
2022-11-26T01:23:11.342Z,53.8
2022-11-26T01:25:13.296Z,53.4
2022-11-26T01:27:15.250Z,46.5
2022-11-26T01:29:17.161Z,49.1
2022-11-26T01:31:22.338Z,58.7
2022-11-26T01:33:24.303Z,53.6
2022-11-26T01:35:26.249Z,40.7
2022-11-26T01:37:28.205Z,64.5
2022-11-26T01:39:30.132Z,69.3
2022-11-26T01:41:32.075Z,46
2022-11-26T01:43:34.018Z,47.7
2022-11-26T01:45:39.253Z,39.7
2022-11-26T01:49:43.074Z,50
2022-11-26T01:51:44.992Z,35.4
2022-11-26T01:53:46.940Z,59.1
2022-11-26T01:55:48.902Z,37.8
2022-11-26T01:57:50.819Z,34.3
2022-11-26T01:59:56.056Z,50.7
2022-11-26T02:01:57.961Z,49.3
2022-11-26T02:03:59.864Z,52.2
2022-11-26T02:06:28.778Z,39.8
2022-11-26T02:08:30.699Z,65.2
2022-11-26T02:10:32.648Z,71.5
2022-11-26T02:12:37.800Z,47.4
2022-11-26T02:14:39.923Z,38.4
2022-11-26T02:16:41.714Z,54.1
2022-11-26T02:18:43.596Z,32.8
2022-11-26T02:20:45.536Z,42.5
2022-11-26T02:22:47.482Z,61
2022-11-26T02:24:49.446Z,27.9
2022-11-26T02:28:56.546Z,50.1
2022-11-26T02:30:58.487Z,47.3
2022-11-26T02:33:00.421Z,44.3
2022-11-26T02:35:02.377Z,40.2
2022-11-26T02:37:04.327Z,42.2
2022-11-26T02:39:06.246Z,59.7
2022-11-26T02:41:11.406Z,26.9
2022-11-26T02:47:17.243Z,75.4
2022-11-26T02:53:23.042Z,47.4
2022-11-26T03:00:34.652Z,43.8
2022-11-26T03:02:36.558Z,53.5
2022-11-26T03:08:45.586Z,51.4
2022-11-26T03:10:47.537Z,61.2
2022-11-26T03:12:49.479Z,45.6
2022-11-26T03:18:55.288Z,42.6
2022-11-26T03:25:04.264Z,52.3
2022-11-26T03:27:06.211Z,65.8
2022-11-26T03:35:14.015Z,66.2
2022-11-26T03:37:19.101Z,49.4
2022-11-26T03:39:21.035Z,54.6
2022-11-26T03:41:22.978Z,59.4
2022-11-26T03:43:24.938Z,65.8
2022-11-26T03:45:27.083Z,57.7
2022-11-26T03:47:28.866Z,67.2
2022-11-26T03:49:30.741Z,68.1
2022-11-26T03:51:37.462Z,50.7
2022-11-26T03:53:39.339Z,48.7
2022-11-26T03:55:41.296Z,58.5
2022-11-26T03:56:43.860Z,45.3
2022-11-26T03:58:45.781Z,51.3
2022-11-26T04:00:47.711Z,69
2022-11-26T04:04:54.817Z,51.2
2022-11-26T04:06:56.745Z,59.6
2022-11-26T04:08:58.682Z,53.1
2022-11-26T04:11:00.613Z,69.7
2022-11-26T04:13:02.650Z,53.7
2022-11-26T04:15:04.469Z,50.2
2022-11-26T04:17:06.429Z,66
2022-11-26T04:19:11.593Z,59.3
2022-11-26T04:21:13.491Z,61.8
2022-11-26T04:23:15.550Z,51.9
2022-11-26T04:25:17.348Z,73.4
2022-11-26T04:27:19.282Z,59.8
2022-11-26T04:29:21.205Z,64.9
2022-11-26T04:33:28.316Z,66.3
2022-11-26T04:35:30.244Z,91.6
2022-11-26T04:39:34.087Z,72.8
2022-11-26T04:41:36.020Z,56.5
2022-11-26T04:43:37.966Z,53.7
2022-11-26T04:45:39.946Z,62.4
2022-11-26T04:47:45.062Z,87.1
2022-11-26T04:49:46.988Z,58.1
2022-11-26T04:51:48.892Z,42.3
2022-11-26T04:52:51.464Z,51.9
2022-11-26T04:54:53.411Z,56.4
2022-11-26T04:56:55.357Z,68.3
2022-11-26T05:01:02.517Z,51.2
2022-11-26T05:03:04.442Z,43.5
2022-11-26T05:05:06.298Z,52.2
2022-11-26T05:07:08.302Z,43.9
2022-11-26T05:09:10.169Z,52.2
2022-11-26T05:11:12.110Z,56.2
2022-11-26T05:13:14.070Z,46.9
2022-11-26T05:15:19.246Z,66.6
2022-11-26T05:17:21.175Z,48.4
2022-11-26T05:19:23.164Z,56.1
2022-11-26T05:21:25.022Z,47.5
2022-11-26T05:23:26.952Z,51.4
2022-11-26T05:25:28.864Z,71.3
2022-11-26T05:27:30.791Z,69
2022-11-26T05:29:36.076Z,76.3
2022-11-26T05:31:38.056Z,63.9
2022-11-26T05:33:39.858Z,54.9
2022-11-26T05:35:41.793Z,58.1
2022-11-26T05:37:43.674Z,53.4
2022-11-26T05:39:45.607Z,52.7
2022-11-26T05:45:54.763Z,54.1
2022-11-26T05:50:25.528Z,58.7
2022-11-26T05:52:27.429Z,44.8
2022-11-26T05:54:29.319Z,75.8
2022-11-26T05:56:34.510Z,60.4
2022-11-26T05:58:36.440Z,53
2022-11-26T06:00:38.374Z,52.3
2022-11-26T06:04:42.263Z,74.6
2022-11-26T06:06:44.153Z,68.7
2022-11-26T06:08:46.099Z,69.8
2022-11-26T06:14:55.136Z,87.8
2022-11-26T06:16:57.098Z,77.9
2022-11-26T06:25:07.989Z,80.8
2022-11-26T06:27:09.921Z,90.8
2022-11-26T06:29:11.870Z,59.1
2022-11-26T06:31:13.831Z,53
2022-11-26T06:33:15.698Z,67.5
2022-11-26T06:35:17.668Z,87.3
2022-11-26T06:37:19.605Z,68.1
2022-11-26T06:39:24.757Z,81.9
2022-11-26T06:43:28.642Z,81.6
2022-11-26T06:44:31.223Z,89.2
2022-11-26T06:48:35.090Z,72.8
2022-11-26T06:50:37.030Z,80.4
2022-11-26T06:52:42.189Z,73.1
2022-11-26T06:54:44.141Z,82.4
2022-11-26T06:56:46.088Z,78.5
2022-11-26T06:58:48.035Z,83.7
2022-11-26T07:00:49.968Z,89.2
2022-11-26T07:02:51.957Z,73
2022-11-26T07:04:53.845Z,79.7
2022-11-26T07:06:58.995Z,84.8
2022-11-26T07:11:02.890Z,61.7
2022-11-26T07:13:04.830Z,89.7
2022-11-26T07:15:06.768Z,96.2
2022-11-26T07:17:08.713Z,73.3
2022-11-26T07:21:15.806Z,98.6
2022-11-26T07:23:17.766Z,82.1
2022-11-26T07:25:19.707Z,102.2
2022-11-26T07:27:21.625Z,77.9
2022-11-26T07:29:23.587Z,80.5
2022-11-26T07:31:25.557Z,72.1
2022-11-26T07:33:27.479Z,77.8
2022-11-26T07:35:32.597Z,85.4
2022-11-26T07:37:34.542Z,105.4
2022-11-26T07:39:36.497Z,81.5
2022-11-26T07:42:41.007Z,90.2
2022-11-26T07:44:42.932Z,73.9
2022-11-26T07:46:44.934Z,99.4
2022-11-26T07:48:50.052Z,83.8
2022-11-26T07:50:52.016Z,82.3
2022-11-26T07:52:53.936Z,98.7
2022-11-26T07:54:55.895Z,96.2
2022-11-26T07:56:57.812Z,87.5
2022-11-26T07:58:59.761Z,89.2
2022-11-26T08:01:01.768Z,92.2
2022-11-26T08:03:06.877Z,95.6
2022-11-26T08:05:08.837Z,94.5
2022-11-26T08:07:11.498Z,84.1
2022-11-26T08:09:12.738Z,79.5
2022-11-26T08:11:14.688Z,78
2022-11-26T08:13:16.615Z,102.3
2022-11-26T08:15:18.561Z,90.9
2022-11-26T08:17:23.800Z,80.1
2022-11-26T08:19:25.718Z,96.7
2022-11-26T08:21:27.669Z,95.3
2022-11-26T08:23:29.613Z,97.5
2022-11-26T08:25:31.553Z,101.4
2022-11-26T08:27:33.543Z,74
2022-11-26T08:29:35.498Z,105.1
2022-11-26T08:31:45.145Z,92.1
2022-11-26T08:33:42.608Z,84.7
2022-11-26T08:36:05.443Z,75.2
2022-11-26T08:36:47.144Z,79.9
2022-11-26T08:38:49.093Z,104.5
2022-11-26T08:40:51.052Z,79.2
2022-11-26T08:42:53.023Z,98.8
2022-11-26T08:44:58.189Z,87.1
2022-11-26T08:47:00.149Z,92.1
2022-11-26T08:51:04.085Z,71.8
2022-11-26T08:53:06.051Z,64.3
2022-11-26T08:55:08.010Z,74.8
2022-11-26T08:57:10.001Z,65.5
2022-11-26T08:59:15.127Z,50.7
2022-11-26T09:01:17.254Z,51.4
2022-11-26T09:03:19.165Z,58.5
2022-11-26T09:05:21.075Z,59.4
2022-11-26T09:07:23.108Z,32.1
2022-11-26T09:09:25.055Z,60
2022-11-26T09:11:27.002Z,54.8
2022-11-26T09:15:34.199Z,74.1
2022-11-26T09:17:36.192Z,50.9
2022-11-26T09:19:38.190Z,48
2022-11-26T09:21:40.160Z,34.5
2022-11-26T09:23:42.124Z,35.8
2022-11-26T09:27:49.277Z,43.5
2022-11-26T09:29:51.295Z,45.8
2022-11-26T09:32:21.284Z,34.3
2022-11-26T09:38:26.043Z,33.2
2022-11-26T09:44:37.207Z,32.9
2022-11-26T09:46:51.008Z,23
2022-11-26T09:52:44.603Z,46.5
2022-11-26T09:54:49.799Z,39
2022-11-26T09:56:51.783Z,36.2
2022-11-26T10:00:55.781Z,25
2022-11-26T10:02:57.663Z,23.8
2022-11-26T10:04:59.674Z,40.9
2022-11-26T10:09:06.837Z,31
2022-11-26T10:11:08.815Z,27
2022-11-26T10:17:14.733Z,31.1
2022-11-26T10:19:16.694Z,17.2
2022-11-26T10:21:27.224Z,23.5
2022-11-26T10:23:23.908Z,34.4
2022-11-26T10:25:25.876Z,44.3
2022-11-26T10:27:27.824Z,26.5
2022-11-26T10:28:30.424Z,27.8
2022-11-26T10:34:38.932Z,30.7
2022-11-26T10:38:43.567Z,36.7
2022-11-26T10:40:45.555Z,24.2
2022-11-26T10:44:49.482Z,33
2022-11-26T10:46:51.554Z,19.6
2022-11-26T10:50:58.662Z,34.1
2022-11-26T10:53:00.759Z,45.7
2022-11-26T10:55:02.615Z,28.1
2022-11-26T10:59:06.581Z,17.1
2022-11-26T11:05:15.738Z,25.6
2022-11-26T11:07:17.719Z,28.5
2022-11-26T11:15:25.649Z,27.1
2022-11-26T11:24:06.514Z,27.7
2022-11-26T11:24:39.380Z,26.1
2022-11-26T11:26:41.375Z,43.2
2022-11-26T11:28:43.350Z,29.5
2022-11-26T11:30:45.342Z,40.1
2022-11-26T11:32:50.519Z,36.1
2022-11-26T11:34:52.510Z,26.2
2022-11-26T11:36:54.659Z,27.8
2022-11-26T11:38:56.544Z,26.3
2022-11-26T11:40:58.510Z,52.7
2022-11-26T11:43:00.475Z,21.3
2022-11-26T11:45:02.487Z,29.9
2022-11-26T11:47:07.692Z,36.5
2022-11-26T11:51:11.683Z,32
2022-11-26T11:53:13.677Z,24.9
2022-11-26T11:55:15.609Z,31.9
2022-11-26T11:57:17.627Z,38
2022-11-26T12:01:24.826Z,15.2
2022-11-26T12:03:26.818Z,21.9
2022-11-26T12:05:28.817Z,30.4
2022-11-26T12:07:30.832Z,18.2
2022-11-26T12:09:32.764Z,31.6
2022-11-26T12:13:36.741Z,36
2022-11-26T12:15:41.974Z,27.7
2022-11-26T12:17:43.928Z,23.3
2022-11-26T12:19:45.844Z,37.4
2022-11-26T12:20:48.467Z,22.5
2022-11-26T12:22:50.478Z,25.4
2022-11-26T12:24:52.453Z,19.1
2022-11-26T12:26:54.447Z,16.7
2022-11-26T12:28:59.563Z,25.3
2022-11-26T12:31:01.434Z,18.5
2022-11-26T12:37:07.092Z,19.8
2022-11-26T12:39:08.986Z,16.9
2022-11-26T12:43:16.504Z,26.9
2022-11-26T12:45:18.386Z,27
2022-11-26T12:53:25.989Z,21.7
2022-11-26T12:55:27.862Z,20.9
2022-11-26T12:59:34.771Z,17.6
2022-11-26T13:01:36.782Z,18.9
2022-11-26T13:03:38.555Z,15.8
2022-11-26T13:05:40.549Z,27.2
2022-11-26T13:07:42.494Z,16.9
2022-11-26T13:09:44.317Z,11.2
2022-11-26T13:11:49.342Z,16.6
2022-11-26T13:13:51.204Z,32.1
2022-11-26T13:15:53.132Z,18.8
2022-11-26T13:20:23.777Z,35.9
2022-11-26T13:22:25.654Z,23.9
2022-11-26T13:26:32.794Z,12
2022-11-26T13:28:34.805Z,17.6
2022-11-26T13:30:36.815Z,18.1
2022-11-26T13:36:42.674Z,18.2
2022-11-26T13:38:47.924Z,17.8
2022-11-26T13:44:53.785Z,22.5
2022-11-26T13:46:55.784Z,29.4
2022-11-26T13:50:59.776Z,18.8
2022-11-26T13:53:05.018Z,16
2022-11-26T13:55:07.010Z,27.1
2022-11-26T13:57:09.006Z,16.7
2022-11-26T13:59:11.002Z,27
2022-11-26T14:01:13.047Z,33
2022-11-26T14:03:14.981Z,27.6
2022-11-26T14:05:16.975Z,22.4
2022-11-26T14:07:22.271Z,27.7
2022-11-26T14:09:24.119Z,23.8
2022-11-26T14:11:26.090Z,16.5
2022-11-26T14:12:28.694Z,25
2022-11-26T14:16:32.687Z,16.1
2022-11-26T14:18:34.670Z,16.4
2022-11-26T14:20:39.897Z,20.8
2022-11-26T14:24:43.901Z,40.1
2022-11-26T14:26:45.891Z,18.8
2022-11-26T14:28:47.882Z,15.8
2022-11-26T14:34:57.073Z,21.5
2022-11-26T14:36:59.115Z,14
2022-11-26T14:41:03.058Z,25.7
2022-11-26T14:43:05.031Z,33.8
2022-11-26T14:49:14.230Z,33.5
2022-11-26T14:51:16.234Z,23.8
2022-11-26T14:53:18.207Z,25.4
2022-11-26T14:55:20.174Z,12.5
2022-11-26T14:57:22.169Z,23.5
2022-11-26T14:59:24.143Z,22.6
2022-11-26T15:01:26.156Z,21.7
2022-11-26T15:03:31.431Z,35
2022-11-26T15:07:35.364Z,38.6
2022-11-26T15:08:38.010Z,22.3
2022-11-26T15:14:43.970Z,30.8
2022-11-26T15:18:51.169Z,26.4
2022-11-26T15:20:53.126Z,20.1
2022-11-26T15:22:55.130Z,26.5
2022-11-26T15:31:06.337Z,17.1
2022-11-26T15:33:08.293Z,21.7
2022-11-26T15:35:12.405Z,28
2022-11-26T15:37:13.799Z,18.5
2022-11-26T15:39:15.821Z,16.3
2022-11-26T15:41:17.777Z,35.3
2022-11-26T15:43:19.761Z,24.3
2022-11-26T15:45:24.971Z,29.5
2022-11-26T15:47:26.929Z,34.1
2022-11-26T15:49:28.916Z,16.8
2022-11-26T15:53:32.882Z,34.8
2022-11-26T15:55:34.868Z,27.3
2022-11-26T15:57:36.876Z,38.8
2022-11-26T16:01:44.180Z,38.8
2022-11-26T16:03:46.076Z,28.9
2022-11-26T16:04:48.667Z,16.4
2022-11-26T16:06:50.652Z,19.4
2022-11-26T16:08:52.630Z,23.4
2022-11-26T16:10:54.603Z,33.9
2022-11-26T16:12:59.828Z,49
2022-11-26T16:15:01.791Z,23.6
2022-11-26T16:17:07.853Z,22.4
2022-11-26T16:19:05.740Z,22.8
2022-11-26T16:21:07.761Z,28
2022-11-26T16:23:09.729Z,25.8
2022-11-26T16:25:11.700Z,35.8
2022-11-26T16:27:16.896Z,24.8
2022-11-26T16:29:18.913Z,14.5
2022-11-26T16:31:20.896Z,17
2022-11-26T16:33:22.857Z,27.3
2022-11-26T16:35:44.710Z,15.4
2022-11-26T16:37:26.862Z,35.5
2022-11-26T16:39:30.525Z,21.2
2022-11-26T16:41:34.082Z,35.1
2022-11-26T16:43:36.070Z,35.6
2022-11-26T16:45:38.048Z,25.8
2022-11-26T16:47:40.034Z,29.9
2022-11-26T16:49:42.046Z,24.2
2022-11-26T16:51:44.015Z,37.8
2022-11-26T16:53:45.983Z,24.8
2022-11-26T16:55:51.181Z,29.9
2022-11-26T16:57:53.184Z,30.5
2022-11-26T16:59:55.368Z,28.2
2022-11-26T17:02:24.127Z,39.2
2022-11-26T17:04:25.996Z,28.9
2022-11-26T17:06:27.961Z,28.5
2022-11-26T17:10:35.175Z,25.9
2022-11-26T17:12:37.176Z,35.6
2022-11-26T17:14:39.208Z,22.5
2022-11-26T17:16:41.227Z,34.4
2022-11-26T17:20:45.126Z,28.5
2022-11-26T17:22:50.307Z,30.4
2022-11-26T17:24:52.302Z,33.3
2022-11-26T17:26:54.265Z,31.6
2022-11-26T17:30:58.239Z,31.1
2022-11-26T17:33:00.204Z,25.8
2022-11-26T17:41:11.322Z,26.7
2022-11-26T17:43:13.285Z,34.2
2022-11-26T17:45:15.270Z,29.8
2022-11-26T17:47:18.169Z,22
2022-11-26T17:49:19.218Z,38.9
2022-11-26T17:51:24.432Z,41
2022-11-26T17:53:26.419Z,51.2
2022-11-26T17:55:28.365Z,28.3
2022-11-26T17:56:30.977Z,36.3
2022-11-26T17:58:32.933Z,39.8
2022-11-26T18:00:34.901Z,37.5
2022-11-26T18:02:37.005Z,27.5
2022-11-26T18:04:42.109Z,19.7
2022-11-26T18:06:44.111Z,36.9
2022-11-26T18:08:46.080Z,26
2022-11-26T18:10:48.045Z,34.4
2022-11-26T18:12:50.019Z,28.1
2022-11-26T18:14:51.983Z,34.4
2022-11-26T18:16:54.061Z,23.6
2022-11-26T18:18:59.176Z,36.6
2022-11-26T18:21:01.121Z,26.9
2022-11-26T18:23:03.071Z,35.7
2022-11-26T18:25:05.049Z,18.5
2022-11-26T18:27:07.032Z,33.6
2022-11-26T18:29:09.022Z,26.1
2022-11-26T18:31:11.061Z,18
2022-11-26T18:33:16.180Z,33.2
2022-11-26T18:35:18.154Z,42
2022-11-26T18:37:20.117Z,34
2022-11-26T18:39:22.091Z,45.5
2022-11-26T18:41:24.069Z,48.9
2022-11-26T18:43:26.052Z,15.2
2022-11-26T18:45:28.009Z,35.2
2022-11-26T18:47:33.210Z,18.4
2022-11-26T18:49:35.169Z,31.4
2022-11-26T18:51:37.188Z,13.6
2022-11-26T18:52:39.753Z,31.2
2022-11-26T18:54:41.729Z,23.9
2022-11-26T18:56:43.720Z,28.3
2022-11-26T18:58:45.710Z,16.6
2022-11-26T19:00:50.947Z,19.3
2022-11-26T19:02:52.949Z,41.6
2022-11-26T19:04:54.863Z,21.5
2022-11-26T19:06:56.829Z,26.8
2022-11-26T19:08:58.801Z,12.8
2022-11-26T19:11:00.781Z,19
2022-11-26T19:13:02.886Z,31.6
2022-11-26T19:15:07.944Z,14.4
2022-11-26T19:19:11.861Z,30.6
2022-11-26T19:21:13.860Z,34.6
2022-11-26T19:23:15.818Z,20
2022-11-26T19:25:17.815Z,25.7
2022-11-26T19:27:19.791Z,30
2022-11-26T19:29:25.014Z,18.8
2022-11-26T19:31:27.099Z,31.2
2022-11-26T19:33:29.077Z,17.9
2022-11-26T19:35:30.950Z,11.7
2022-11-26T19:37:32.919Z,36.7
2022-11-26T19:39:34.885Z,24
2022-11-26T19:43:42.069Z,29.9
2022-11-26T19:45:44.116Z,14.2
2022-11-26T19:48:48.666Z,45.9
2022-11-26T19:50:50.591Z,17.7
2022-11-26T19:52:52.553Z,20.8
2022-11-26T19:54:54.535Z,17.8
2022-11-26T19:56:59.729Z,44.9
2022-11-26T19:59:01.676Z,35
2022-11-26T20:01:03.746Z,27.2
2022-11-26T20:03:05.835Z,38.8
2022-11-26T20:05:07.611Z,32.8
2022-11-26T20:07:09.673Z,18.2
2022-11-26T20:09:11.573Z,30.1
2022-11-26T20:11:16.740Z,28.8
2022-11-26T20:13:18.707Z,29.1
2022-11-26T20:15:20.696Z,34.1
2022-11-26T20:17:22.758Z,16.6
2022-11-26T20:19:24.659Z,17.6
2022-11-26T20:21:26.633Z,49.9
2022-11-26T20:23:28.581Z,24.9
2022-11-26T20:25:33.793Z,26.7
2022-11-26T20:33:41.666Z,15.9
2022-11-26T20:39:50.823Z,27.6
2022-11-26T20:41:52.777Z,29.8
2022-11-26T20:43:58.489Z,14.8
2022-11-26T20:46:23.707Z,37
2022-11-26T20:48:25.602Z,19.2
2022-11-26T20:50:27.569Z,17
2022-11-26T20:52:32.760Z,19.7
2022-11-26T20:54:34.753Z,22.7
2022-11-26T20:56:36.731Z,28
2022-11-26T21:00:40.697Z,36.7
2022-11-26T21:02:42.732Z,20.7
2022-11-26T21:04:44.637Z,22.9
2022-11-26T21:06:49.834Z,20.4
2022-11-26T21:08:51.801Z,20.4
2022-11-26T21:10:53.792Z,20.9
2022-11-26T21:12:55.741Z,22.7
2022-11-26T21:14:57.742Z,20.9
2022-11-26T21:21:06.888Z,14.2
2022-11-26T21:23:08.851Z,20.8
2022-11-26T21:25:10.850Z,17.7
2022-11-26T21:29:16.284Z,19.1
2022-11-26T21:33:20.248Z,20.9
2022-11-26T21:35:25.445Z,22.1
2022-11-26T21:37:27.402Z,25.7
2022-11-26T21:40:31.982Z,15
2022-11-26T21:42:33.968Z,20
2022-11-26T21:44:35.944Z,21
2022-11-26T21:48:43.101Z,35.9
2022-11-26T21:50:45.084Z,22.1
2022-11-26T21:56:51.050Z,13.7
2022-11-26T22:03:00.250Z,33.8
2022-11-26T22:05:02.096Z,17.2
2022-11-26T22:07:04.093Z,12.1
2022-11-26T22:09:06.071Z,27.5
2022-11-26T22:11:08.020Z,24.1
2022-11-26T22:21:21.112Z,23.5
2022-11-26T22:23:23.073Z,37
2022-11-26T22:25:25.030Z,20.7
2022-11-26T22:27:27.028Z,27
2022-11-26T22:31:34.239Z,24.2
2022-11-26T22:33:36.105Z,20.6
2022-11-26T22:35:38.080Z,14.9
2022-11-26T22:36:40.695Z,19.2
2022-11-26T22:38:42.646Z,33.6
2022-11-26T22:40:44.593Z,22.8
2022-11-26T22:42:46.557Z,17.6
2022-11-26T22:44:51.754Z,29.5
2022-11-26T22:46:53.725Z,33.1
2022-11-26T22:48:55.703Z,52.8
2022-11-26T22:50:57.634Z,23.3
2022-11-26T22:52:59.593Z,33.4
2022-11-26T22:55:01.614Z,25.6
2022-11-26T22:57:03.517Z,30.8
2022-11-26T23:01:10.633Z,12.3
2022-11-26T23:03:12.770Z,28
2022-11-26T23:11:20.389Z,20.6
2022-11-26T23:13:25.554Z,20.3
2022-11-26T23:19:31.439Z,26.4
2022-11-26T23:21:33.396Z,16.6
2022-11-26T23:23:35.329Z,18.1
2022-11-26T23:27:42.482Z,30.8
2022-11-26T23:29:44.427Z,24.1
2022-11-26T23:32:48.987Z,31.9
2022-11-26T23:34:50.951Z,33.2
2022-11-26T23:36:52.888Z,23
2022-11-26T23:38:54.842Z,26.6
2022-11-26T23:41:00.013Z,16.8
2022-11-26T23:43:07.238Z,20.8
2022-11-26T23:45:03.950Z,16.5
2022-11-26T23:47:05.909Z,14.9
2022-11-26T23:49:07.900Z,18.5
2022-11-26T23:51:09.827Z,28.2
2022-11-26T23:53:11.780Z,16.6
2022-11-26T23:55:16.934Z,17.2
2022-11-26T23:57:18.906Z,17.9
2022-11-26T23:59:20.851Z,21
